Time;durP1;ratioP1;P1;durP2;ratioP2;P2;SDS_P1;SDS_P2;PMS_P1;PMS_P2;Temp;Humidity;BMP_temperature;BMP_pressure;BME280_temperature;BME280_humidity;BME280_pressure;Samples;Min_cycle;Max_cycle;Signal;HPM_P1;HPM_P2
2022/11/23 00:01:47;;;;;;;5.93;1.73;;;11.40;99.90;;;;;;5005055;28;20215;-31
2022/11/23 00:04:17;;;;;;;7.70;2.50;;;11.40;99.90;;;;;;5004035;28;20209;-30
2022/11/23 00:06:49;;;;;;;6.80;1.93;;;11.40;99.90;;;;;;5006075;28;20198;-30
2022/11/23 00:09:16;;;;;;;9.23;1.80;;;11.40;99.90;;;;;;5005170;28;20767;-30
2022/11/23 00:11:48;;;;;;;9.47;1.80;;;11.40;99.90;;;;;;4999096;28;20680;-31
2022/11/23 00:14:20;;;;;;;6.73;1.67;;;11.40;99.90;;;;;;5005175;28;20210;-31
2022/11/23 00:16:52;;;;;;;8.87;1.83;;;11.40;99.90;;;;;;5020240;28;20248;-30
2022/11/23 00:19:19;;;;;;;8.27;1.77;;;11.40;99.90;;;;;;5006417;28;20230;-30
2022/11/23 00:21:54;;;;;;;12.27;1.90;;;11.30;99.90;;;;;;5009589;28;20217;-30
2022/11/23 00:24:21;;;;;;;6.03;1.50;;;11.30;99.90;;;;;;5008700;28;20247;-30
2022/11/23 00:26:50;;;;;;;9.73;2.40;;;11.40;99.90;;;;;;5008777;28;20205;-30
2022/11/23 00:29:17;;;;;;;9.47;1.80;;;11.40;99.90;;;;;;5008293;28;20225;-30
2022/11/23 00:31:44;;;;;;;8.57;1.73;;;11.40;99.90;;;;;;5009729;28;20651;-31
2022/11/23 00:34:14;;;;;;;8.87;1.97;;;11.40;99.90;;;;;;5009514;28;20228;-30
2022/11/23 00:36:46;;;;;;;6.60;2.07;;;11.40;99.90;;;;;;5009100;28;20649;-31
2022/11/23 00:39:15;;;;;;;5.70;1.70;;;11.40;99.90;;;;;;5008173;28;20233;-31
2022/11/23 00:41:42;;;;;;;9.97;1.90;;;11.40;99.90;;;;;;5008063;28;21090;-31
2022/11/23 00:44:12;;;;;;;8.20;1.80;;;11.40;99.90;;;;;;5008699;28;20208;-30
2022/11/23 00:46:39;;;;;;;7.80;1.83;;;11.40;99.90;;;;;;5009166;28;20209;-31
2022/11/23 00:49:09;;;;;;;8.97;1.93;;;11.40;99.90;;;;;;5008959;28;20324;-31
2022/11/23 00:51:39;;;;;;;7.87;2.30;;;11.40;99.90;;;;;;5023494;28;20304;-30
2022/11/23 00:54:11;;;;;;;7.90;2.20;;;11.40;99.90;;;;;;5008211;28;20541;-30
2022/11/23 00:56:41;;;;;;;7.33;1.73;;;11.40;99.90;;;;;;5023245;28;20312;-31
2022/11/23 00:59:11;;;;;;;6.80;1.90;;;11.40;99.90;;;;;;5008626;28;20296;-30
2022/11/23 01:01:38;;;;;;;4.87;1.53;;;11.40;99.90;;;;;;5008944;28;20746;-31
2022/11/23 01:04:08;;;;;;;9.20;1.97;;;11.40;99.90;;;;;;5007545;28;20209;-30
2022/11/23 01:06:38;;;;;;;7.40;1.90;;;11.40;99.90;;;;;;5002314;28;20218;-31
2022/11/23 01:09:16;;;;;;;10.80;2.17;;;11.40;99.90;;;;;;5006205;28;20279;-31
2022/11/23 01:11:46;;;;;;;6.80;2.07;;;11.40;99.90;;;;;;5008689;28;20212;-30
2022/11/23 01:14:16;;;;;;;8.33;1.93;;;11.40;99.90;;;;;;5007971;28;20225;-30
2022/11/23 01:16:48;;;;;;;7.90;1.97;;;11.40;99.90;;;;;;5007973;28;21109;-31
2022/11/23 01:19:20;;;;;;;6.80;2.13;;;11.40;99.90;;;;;;5006261;28;20292;-30
2022/11/23 01:21:50;;;;;;;11.13;2.10;;;11.40;99.90;;;;;;5021415;28;20204;-30
2022/11/23 01:24:20;;;;;;;10.50;2.20;;;11.40;99.90;;;;;;5005317;28;20218;-31
2022/11/23 01:26:54;;;;;;;11.17;2.60;;;11.40;99.90;;;;;;5007164;28;20194;-31
2022/11/23 01:29:22;;;;;;;7.23;2.10;;;11.40;99.90;;;;;;5004970;28;20279;-31
2022/11/23 01:31:49;;;;;;;12.20;1.93;;;11.40;99.90;;;;;;5020561;28;20210;-31
2022/11/23 01:34:19;;;;;;;8.67;2.10;;;11.40;99.90;;;;;;5007153;28;20214;-30
2022/11/23 01:36:48;;;;;;;7.37;1.87;;;11.40;99.90;;;;;;5007147;28;20272;-31
2022/11/23 01:39:15;;;;;;;10.23;2.10;;;11.40;99.90;;;;;;5006622;28;20320;-31
2022/11/23 01:41:49;;;;;;;8.27;2.33;;;11.40;99.90;;;;;;5007050;28;20755;-30
2022/11/23 01:44:33;;;;;;;9.90;2.27;;;11.30;99.90;;;;;;5007751;28;20189;-30
2022/11/23 01:47:09;;;;;;;12.70;2.50;;;11.40;99.90;;;;;;5007857;28;20228;-30
2022/11/23 01:49:45;;;;;;;14.20;2.33;;;11.40;99.90;;;;;;5006559;28;20287;-31
2022/11/23 01:52:20;;;;;;;10.90;3.50;;;11.40;99.90;;;;;;5008257;28;20292;-31
2022/11/23 01:54:53;;;;;;;9.70;2.13;;;11.40;99.90;;;;;;5007096;28;20288;-30
2022/11/23 01:57:25;;;;;;;6.00;1.93;;;11.40;99.90;;;;;;5008024;28;20712;-30
2022/11/23 01:59:56;;;;;;;7.77;2.13;;;11.40;99.90;;;;;;4992631;28;20226;-30
2022/11/23 02:02:27;;;;;;;10.27;2.47;;;11.40;99.90;;;;;;4995418;28;20594;-30
2022/11/23 02:04:58;;;;;;;12.87;2.40;;;11.40;99.90;;;;;;4998788;28;20213;-30
2022/11/23 02:07:25;;;;;;;10.60;2.50;;;11.30;99.90;;;;;;4995731;28;20764;-31
2022/11/23 02:09:53;;;;;;;14.07;2.70;;;11.30;99.90;;;;;;5002570;28;20297;-30
2022/11/23 02:12:23;;;;;;;11.97;2.30;;;11.30;99.90;;;;;;5022231;28;20700;-31
2022/11/23 02:14:55;;;;;;;9.90;2.30;;;11.30;99.90;;;;;;5005185;28;20304;-30
2022/11/23 02:17:24;;;;;;;9.90;2.27;;;11.30;99.90;;;;;;5011482;28;20764;-30
2022/11/23 02:20:12;;;;;;;8.47;2.20;;;11.30;99.90;;;;;;5006677;28;20806;-31
2022/11/23 02:23:05;;;;;;;13.97;2.60;;;11.30;99.90;;;;;;5006385;28;20212;-30
2022/11/23 02:25:44;;;;;;;8.80;2.20;;;11.30;99.90;;;;;;4991763;28;20200;-30
2022/11/23 02:28:18;;;;;;;9.13;2.20;;;11.20;99.90;;;;;;5006807;28;20739;-30
2022/11/23 02:30:50;;;;;;;11.20;2.27;;;11.20;99.90;;;;;;5006823;28;20316;-30
2022/11/23 02:33:17;;;;;;;8.93;2.30;;;11.20;99.90;;;;;;5005314;28;20230;-31
2022/11/23 02:35:49;;;;;;;10.97;2.40;;;11.20;99.90;;;;;;5006568;28;20198;-30
2022/11/23 02:38:26;;;;;;;9.13;2.97;;;11.20;99.90;;;;;;5005129;28;20209;-30
2022/11/23 02:40:53;;;;;;;12.33;2.63;;;11.20;99.90;;;;;;5006550;28;20798;-30
2022/11/23 02:43:20;;;;;;;6.57;1.97;;;11.20;99.90;;;;;;5004621;28;20759;-31
2022/11/23 02:45:54;;;;;;;14.13;2.67;;;11.20;99.90;;;;;;5007009;28;20568;-30
2022/11/23 02:48:27;;;;;;;13.30;2.93;;;11.20;99.90;;;;;;5005023;28;20244;-31
2022/11/23 02:50:56;;;;;;;13.87;3.23;;;11.20;99.90;;;;;;5006836;28;20590;-31
2022/11/23 02:53:26;;;;;;;14.40;2.70;;;11.20;99.90;;;;;;5006100;28;20255;-30
2022/11/23 02:55:53;;;;;;;14.17;2.60;;;11.20;99.90;;;;;;4990938;28;20208;-31
2022/11/23 02:58:20;;;;;;;12.03;2.23;;;11.20;99.90;;;;;;4987180;28;20614;-31
2022/11/23 03:00:47;;;;;;;13.17;2.60;;;11.20;99.90;;;;;;4985033;28;20202;-31
2022/11/23 03:03:17;;;;;;;12.43;3.00;;;11.10;99.90;;;;;;4987224;28;20205;-30
2022/11/23 03:05:44;;;;;;;8.97;2.53;;;11.10;99.90;;;;;;4986655;28;20293;-31
2022/11/23 03:08:11;;;;;;;10.97;2.50;;;11.10;99.90;;;;;;4987295;28;20201;-30
2022/11/23 03:10:38;;;;;;;13.70;2.70;;;11.00;99.90;;;;;;4992028;28;20249;-31
2022/11/23 03:13:08;;;;;;;9.10;2.03;;;11.00;99.90;;;;;;5006734;28;20312;-30
2022/11/23 03:15:38;;;;;;;11.70;3.07;;;11.00;99.90;;;;;;5005943;28;20205;-30
2022/11/23 03:18:05;;;;;;;16.73;2.97;;;11.00;99.90;;;;;;5005518;28;20288;-30
2022/11/23 03:20:35;;;;;;;8.57;2.20;;;11.00;99.90;;;;;;5005577;28;20233;-31
2022/11/23 03:23:04;;;;;;;10.97;2.53;;;10.90;99.90;;;;;;5006615;28;20210;-31
2022/11/23 03:25:36;;;;;;;12.50;3.17;;;10.90;99.90;;;;;;5004730;28;20193;-30
2022/11/23 03:28:03;;;;;;;9.87;2.47;;;10.90;99.90;;;;;;5004684;28;20521;-31
2022/11/23 03:30:30;;;;;;;8.80;2.23;;;10.90;99.90;;;;;;5005776;28;20312;-30
2022/11/23 03:33:00;;;;;;;10.10;2.20;;;11.00;99.90;;;;;;5005504;28;20198;-31
2022/11/23 03:35:32;;;;;;;14.23;2.70;;;10.90;99.90;;;;;;5004499;28;20202;-30
2022/11/23 03:37:59;;;;;;;8.60;2.40;;;10.90;99.90;;;;;;5006106;28;20289;-31
2022/11/23 03:40:26;;;;;;;8.27;2.53;;;10.90;99.90;;;;;;5004032;28;20308;-30
2022/11/23 03:42:58;;;;;;;11.93;2.50;;;10.90;99.90;;;;;;5006003;28;20240;-31
2022/11/23 03:45:25;;;;;;;12.33;2.70;;;10.90;99.90;;;;;;5003902;28;20308;-31
2022/11/23 03:47:52;;;;;;;10.23;2.50;;;10.90;99.90;;;;;;5002585;28;20261;-31
2022/11/23 03:50:24;;;;;;;13.57;3.30;;;10.90;99.90;;;;;;4989204;28;20211;-31
2022/11/23 03:52:51;;;;;;;13.27;2.47;;;10.90;99.90;;;;;;4983857;28;20277;-30
2022/11/23 03:55:21;;;;;;;12.47;3.10;;;10.90;99.90;;;;;;4985225;28;20879;-31
2022/11/23 03:57:53;;;;;;;13.80;2.80;;;10.90;99.90;;;;;;4986480;28;20198;-31
2022/11/23 04:00:22;;;;;;;11.57;2.53;;;10.90;99.90;;;;;;4986171;28;20257;-31
2022/11/23 04:02:54;;;;;;;10.23;2.70;;;10.90;99.90;;;;;;5000715;28;20379;-30
2022/11/23 04:05:26;;;;;;;12.07;3.00;;;10.90;99.90;;;;;;5003829;28;20209;-31
2022/11/23 04:07:55;;;;;;;9.30;2.40;;;10.90;99.90;;;;;;5004905;28;20209;-31
2022/11/23 04:10:25;;;;;;;10.77;3.13;;;10.90;99.90;;;;;;5018780;28;20213;-30
2022/11/23 04:12:54;;;;;;;10.33;2.60;;;10.90;99.90;;;;;;5004567;28;20326;-30
2022/11/23 04:15:24;;;;;;;11.83;2.43;;;10.90;99.90;;;;;;5004404;28;20288;-31
2022/11/23 04:17:51;;;;;;;11.50;2.50;;;10.90;99.90;;;;;;5003528;28;20241;-31
2022/11/23 04:20:18;;;;;;;9.30;2.40;;;10.90;99.90;;;;;;5004085;28;20231;-31
2022/11/23 04:22:45;;;;;;;12.00;2.73;;;10.90;99.90;;;;;;5005594;28;20233;-30
2022/11/23 04:25:15;;;;;;;13.83;2.50;;;10.90;99.90;;;;;;5004166;28;20706;-31
2022/11/23 04:27:45;;;;;;;11.97;2.70;;;10.90;99.90;;;;;;5005275;28;20226;-30
2022/11/23 04:30:17;;;;;;;6.60;2.10;;;10.90;99.90;;;;;;5003248;28;20224;-31
2022/11/23 04:32:46;;;;;;;10.37;2.90;;;10.90;99.90;;;;;;5003914;28;20209;-30
2022/11/23 04:35:13;;;;;;;9.73;2.50;;;10.90;99.90;;;;;;5004841;28;21016;-31
2022/11/23 04:37:40;;;;;;;11.50;2.60;;;11.00;99.90;;;;;;5005146;28;20737;-31
2022/11/23 04:40:11;;;;;;;11.40;2.53;;;10.90;99.90;;;;;;5004098;28;20317;-31
2022/11/23 04:42:40;;;;;;;9.20;2.10;;;10.90;99.90;;;;;;4999218;28;20525;-31
2022/11/23 04:45:11;;;;;;;16.93;3.10;;;10.90;99.90;;;;;;5003591;28;20221;-30
2022/11/23 04:47:40;;;;;;;9.03;2.27;;;10.90;99.90;;;;;;5019807;28;20269;-31
2022/11/23 04:50:08;;;;;;;12.20;2.60;;;10.90;99.90;;;;;;5004837;28;20252;-31
2022/11/23 04:52:37;;;;;;;11.57;2.67;;;10.90;99.90;;;;;;5005356;28;20218;-31
2022/11/23 04:55:04;;;;;;;9.23;2.47;;;10.90;99.90;;;;;;5004462;28;20237;-31
2022/11/23 04:57:34;;;;;;;10.63;2.67;;;10.80;99.90;;;;;;5005153;28;20206;-30
2022/11/23 05:00:01;;;;;;;10.07;2.40;;;10.80;99.90;;;;;;5003161;28;20233;-31
2022/11/23 05:02:28;;;;;;;7.57;2.00;;;10.80;99.90;;;;;;5004332;28;20252;-30
2022/11/23 05:04:55;;;;;;;11.53;2.57;;;10.80;99.90;;;;;;5005296;28;20228;-31
2022/11/23 05:07:27;;;;;;;7.87;2.30;;;10.80;99.90;;;;;;5007349;28;20201;-31
2022/11/23 05:09:55;;;;;;;10.27;2.47;;;10.70;99.90;;;;;;5022577;28;20672;-31
2022/11/23 05:12:26;;;;;;;10.17;2.43;;;10.70;99.90;;;;;;5008542;28;20218;-31
2022/11/23 05:14:55;;;;;;;7.53;1.90;;;10.70;99.90;;;;;;5008623;28;20668;-31
2022/11/23 05:17:24;;;;;;;13.43;2.73;;;10.70;99.90;;;;;;5008544;28;20988;-31
2022/11/23 05:19:52;;;;;;;8.50;2.70;;;10.70;99.90;;;;;;5007682;28;20461;-31
2022/11/23 05:22:21;;;;;;;9.77;2.57;;;10.60;99.90;;;;;;5008804;28;20256;-30
2022/11/23 05:24:49;;;;;;;14.33;2.70;;;10.60;99.90;;;;;;5007250;28;20586;-30
2022/11/23 05:27:16;;;;;;;12.33;2.67;;;10.60;99.90;;;;;;5008461;28;20692;-30
2022/11/23 05:29:43;;;;;;;14.37;3.20;;;10.50;99.90;;;;;;5023434;28;20300;-30
2022/11/23 05:32:10;;;;;;;9.87;2.90;;;10.50;99.90;;;;;;5007058;28;20297;-31
2022/11/23 05:34:37;;;;;;;12.67;2.90;;;10.50;99.90;;;;;;5008322;28;20300;-30
2022/11/23 05:37:04;;;;;;;11.47;3.07;;;10.50;99.90;;;;;;5005852;28;20975;-31
2022/11/23 05:39:34;;;;;;;12.17;2.80;;;10.40;99.90;;;;;;5007230;28;20280;-31
2022/11/23 05:42:01;;;;;;;11.03;2.80;;;10.40;99.90;;;;;;5006348;28;20629;-31
2022/11/23 05:44:30;;;;;;;13.33;3.00;;;10.40;99.90;;;;;;5006336;28;20235;-31
2022/11/23 05:46:57;;;;;;;15.17;2.80;;;10.40;99.90;;;;;;5006250;28;20209;-31
2022/11/23 05:49:25;;;;;;;12.73;2.70;;;10.30;99.90;;;;;;5005779;28;20337;-31
2022/11/23 05:51:55;;;;;;;10.60;2.87;;;10.30;99.90;;;;;;5005883;28;20229;-31
2022/11/23 05:54:24;;;;;;;11.60;2.47;;;10.30;99.90;;;;;;5005034;28;20289;-31
2022/11/23 05:56:51;;;;;;;12.00;2.77;;;10.20;99.90;;;;;;5006579;28;20308;-31
2022/11/23 05:59:23;;;;;;;10.33;2.87;;;10.20;99.90;;;;;;5004594;28;20695;-31
2022/11/23 06:01:51;;;;;;;11.80;2.90;;;10.20;99.90;;;;;;5006580;28;20732;-30
2022/11/23 06:04:18;;;;;;;9.37;2.57;;;10.20;99.90;;;;;;5002236;28;20348;-30
2022/11/23 06:06:45;;;;;;;9.30;2.53;;;10.10;99.90;;;;;;4990719;28;20986;-30
2022/11/23 06:09:12;;;;;;;14.07;2.40;;;10.10;99.90;;;;;;5001927;28;20256;-31
2022/11/23 06:11:39;;;;;;;12.17;2.50;;;10.10;99.90;;;;;;5001888;28;20293;-30
2022/11/23 06:14:06;;;;;;;11.90;2.70;;;10.10;99.90;;;;;;5002669;28;20658;-30
2022/11/23 06:16:45;;;;;;;9.03;2.30;;;10.00;99.90;;;;;;5002628;28;20220;-31
2022/11/23 06:19:12;;;;;;;12.00;2.63;;;10.00;99.90;;;;;;4995417;28;20298;-30
2022/11/23 06:21:43;;;;;;;13.53;3.10;;;10.00;99.90;;;;;;4999913;28;20216;-30
2022/11/23 06:24:16;;;;;;;14.83;2.63;;;10.00;99.90;;;;;;5000054;28;20690;-31
2022/11/23 06:26:43;;;;;;;12.50;2.83;;;9.90;99.90;;;;;;5002049;28;20296;-30
2022/11/23 06:29:15;;;;;;;9.10;2.30;;;9.90;99.90;;;;;;4994661;28;20661;-31
2022/11/23 06:31:50;;;;;;;10.60;2.37;;;9.90;99.90;;;;;;4997105;28;20321;-31
2022/11/23 06:34:19;;;;;;;12.80;2.90;;;9.90;99.90;;;;;;5005846;28;20209;-31
2022/11/23 06:36:46;;;;;;;8.90;2.50;;;9.90;99.90;;;;;;4989232;28;20563;-31
2022/11/23 06:39:13;;;;;;;7.93;2.40;;;9.80;99.90;;;;;;4990278;28;20738;-31
2022/11/23 06:41:40;;;;;;;11.87;2.47;;;9.80;99.90;;;;;;5002680;28;20934;-31
2022/11/23 06:44:08;;;;;;;12.50;2.37;;;9.80;99.90;;;;;;5021951;28;20238;-30
2022/11/23 06:46:37;;;;;;;11.90;2.73;;;9.80;99.90;;;;;;5006336;28;20201;-30
2022/11/23 06:49:05;;;;;;;16.50;2.70;;;9.80;99.90;;;;;;5006212;28;20237;-31
2022/11/23 06:51:36;;;;;;;13.43;3.37;;;9.70;99.90;;;;;;5021371;28;20206;-31
2022/11/23 06:54:03;;;;;;;10.57;2.63;;;9.70;99.90;;;;;;5005300;28;20201;-30
2022/11/23 06:56:31;;;;;;;12.77;2.63;;;9.70;99.90;;;;;;4994949;28;20329;-31
2022/11/23 06:58:58;;;;;;;10.63;2.93;;;9.70;99.90;;;;;;4995543;28;20677;-31
2022/11/23 07:01:25;;;;;;;11.43;2.57;;;9.70;99.90;;;;;;4999839;28;20225;-31
2022/11/23 07:03:53;;;;;;;11.03;2.33;;;9.70;99.90;;;;;;4994435;28;20205;-31
2022/11/23 07:06:25;;;;;;;11.30;2.70;;;9.60;99.90;;;;;;5001264;28;20214;-31
2022/11/23 07:08:54;;;;;;;12.17;2.50;;;9.60;99.90;;;;;;5002073;28;20689;-31
2022/11/23 07:11:21;;;;;;;13.53;3.37;;;9.60;99.90;;;;;;5012935;28;20279;-30
2022/11/23 07:13:52;;;;;;;9.33;2.73;;;9.60;99.90;;;;;;5020176;28;20572;-31
2022/11/23 07:16:24;;;;;;;13.53;2.90;;;9.60;99.90;;;;;;5017212;28;20296;-31
2022/11/23 07:18:51;;;;;;;15.33;3.20;;;9.60;99.90;;;;;;5000371;28;20201;-30
2022/11/23 07:21:18;;;;;;;11.40;3.20;;;9.50;99.90;;;;;;4986178;28;20672;-31
2022/11/23 07:23:45;;;;;;;9.63;2.70;;;9.50;99.90;;;;;;5022550;28;20301;-31
2022/11/23 07:26:12;;;;;;;8.07;2.90;;;9.50;99.90;;;;;;5012632;28;20282;-31
2022/11/23 07:28:39;;;;;;;12.73;2.90;;;9.50;99.90;;;;;;5023933;28;20209;-31
2022/11/23 07:31:09;;;;;;;11.10;3.30;;;9.50;99.90;;;;;;5014904;28;20203;-31
2022/11/23 07:33:38;;;;;;;11.43;3.03;;;9.50;99.90;;;;;;5017970;28;20671;-31
2022/11/23 07:36:13;;;;;;;13.67;3.90;;;9.40;99.90;;;;;;5007380;28;20212;-31
2022/11/23 07:38:40;;;;;;;12.37;3.27;;;9.40;99.90;;;;;;5005307;28;20672;-31
2022/11/23 07:41:08;;;;;;;10.63;2.90;;;9.40;99.90;;;;;;5011588;28;20233;-31
2022/11/23 07:43:39;;;;;;;14.37;3.63;;;9.40;99.90;;;;;;5010530;28;20209;-31
2022/11/23 07:46:08;;;;;;;11.87;3.43;;;9.40;99.90;;;;;;5008717;28;20247;-31
2022/11/23 07:48:36;;;;;;;8.57;3.07;;;9.40;99.90;;;;;;5006541;28;20723;-31
2022/11/23 07:51:03;;;;;;;11.07;3.23;;;9.40;99.90;;;;;;5006628;28;20213;-30
2022/11/23 07:53:30;;;;;;;11.50;3.10;;;9.30;99.90;;;;;;5007399;28;20673;-31
2022/11/23 07:56:02;;;;;;;13.70;3.27;;;9.30;99.90;;;;;;5004137;28;20198;-31
2022/11/23 07:58:32;;;;;;;14.40;3.03;;;9.30;99.90;;;;;;5009731;28;20291;-31
2022/11/23 08:01:01;;;;;;;10.80;3.13;;;9.30;99.90;;;;;;5002687;28;20251;-31
2022/11/23 08:03:30;;;;;;;9.97;3.20;;;9.30;99.90;;;;;;5020226;28;20309;-31
2022/11/23 08:05:58;;;;;;;13.90;3.27;;;9.30;99.90;;;;;;5002412;28;20716;-31
2022/11/23 08:08:25;;;;;;;10.13;2.50;;;9.30;99.90;;;;;;5004884;28;20225;-31
2022/11/23 08:10:54;;;;;;;13.30;3.33;;;9.30;99.90;;;;;;5003090;28;20296;-31
2022/11/23 08:13:24;;;;;;;14.37;3.23;;;9.30;99.90;;;;;;5009330;28;20707;-31
2022/11/23 08:15:51;;;;;;;11.00;2.90;;;9.40;99.90;;;;;;5005195;28;20202;-31
2022/11/23 08:18:26;;;;;;;13.77;2.87;;;9.40;99.90;;;;;;5005575;28;20759;-31
2022/11/23 08:20:53;;;;;;;14.60;2.87;;;9.40;99.90;;;;;;4999079;28;20236;-31
2022/11/23 08:23:21;;;;;;;13.60;2.67;;;9.40;99.90;;;;;;5004299;28;20242;-31
2022/11/23 08:25:48;;;;;;;10.53;2.97;;;9.40;99.90;;;;;;5006518;28;20204;-31
2022/11/23 08:28:15;;;;;;;10.83;3.00;;;9.50;99.90;;;;;;5004822;28;20209;-31
2022/11/23 08:30:45;;;;;;;10.13;2.50;;;9.50;99.90;;;;;;5014876;28;20261;-31
2022/11/23 08:33:12;;;;;;;12.90;2.77;;;9.50;99.90;;;;;;5004297;28;20221;-31
2022/11/23 08:35:41;;;;;;;12.73;2.93;;;9.50;99.90;;;;;;4999251;28;20304;-31
2022/11/23 08:38:12;;;;;;;13.07;2.57;;;9.60;99.90;;;;;;5006046;28;20205;-32
2022/11/23 08:40:39;;;;;;;10.43;2.80;;;9.60;99.90;;;;;;5014007;28;20326;-33
2022/11/23 08:43:06;;;;;;;9.03;2.47;;;9.60;99.90;;;;;;5014067;28;20248;-32
2022/11/23 08:45:36;;;;;;;9.43;2.60;;;9.70;99.90;;;;;;5002731;28;20305;-32
2022/11/23 08:48:11;;;;;;;11.40;2.33;;;9.70;99.90;;;;;;5016071;28;20237;-32
2022/11/23 08:50:43;;;;;;;8.73;2.33;;;9.80;99.90;;;;;;5004440;28;20259;-32
2022/11/23 08:53:13;;;;;;;10.93;2.93;;;9.80;99.90;;;;;;5002048;28;20320;-32
2022/11/23 08:55:42;;;;;;;10.07;2.33;;;9.80;99.90;;;;;;5007741;28;20648;-33
2022/11/23 08:58:12;;;;;;;9.93;1.80;;;9.90;99.90;;;;;;5011339;28;20244;-32
2022/11/23 09:00:42;;;;;;;9.23;2.63;;;9.90;99.90;;;;;;5008545;28;20217;-32
2022/11/23 09:03:10;;;;;;;8.30;2.50;;;10.00;99.90;;;;;;5008444;28;20627;-33
2022/11/23 09:05:42;;;;;;;9.07;2.10;;;10.00;99.90;;;;;;5003463;28;20228;-32
2022/11/23 09:08:11;;;;;;;11.60;3.00;;;10.10;99.90;;;;;;5012085;28;20323;-32
2022/11/23 09:10:38;;;;;;;12.57;2.30;;;10.10;99.90;;;;;;5009873;28;20778;-31
2022/11/23 09:13:08;;;;;;;9.10;2.03;;;10.20;99.90;;;;;;5012269;28;20291;-32
2022/11/23 09:15:40;;;;;;;8.30;2.47;;;10.20;99.90;;;;;;5017559;28;20675;-32
2022/11/23 09:18:12;;;;;;;8.13;2.20;;;10.30;99.90;;;;;;5008168;28;20225;-32
2022/11/23 09:20:42;;;;;;;9.43;1.97;;;10.30;99.90;;;;;;5006031;28;20249;-32
2022/11/23 09:23:09;;;;;;;7.57;2.20;;;10.40;99.90;;;;;;5013102;28;20215;-32
2022/11/23 09:25:48;;;;;;;8.23;2.17;;;10.40;99.90;;;;;;5014567;28;20202;-31
2022/11/23 09:28:18;;;;;;;12.97;2.47;;;10.40;99.90;;;;;;5003812;28;20204;-32
2022/11/23 09:30:50;;;;;;;9.70;2.17;;;10.40;99.90;;;;;;5006747;28;20214;-32
2022/11/23 09:33:19;;;;;;;6.27;2.07;;;10.50;99.90;;;;;;5010171;28;20210;-32
2022/11/23 09:35:56;;;;;;;7.23;1.83;;;10.50;99.90;;;;;;5025023;28;20200;-32
2022/11/23 09:38:26;;;;;;;10.13;2.23;;;10.50;99.90;;;;;;5020950;28;20763;-32
2022/11/23 09:41:35;;;;;;;5.33;2.10;;;10.60;99.90;;;;;;5011607;28;20596;-32
2022/11/23 09:44:08;;;;;;;9.10;1.93;;;10.60;99.90;;;;;;4994139;28;20570;-32
2022/11/23 09:46:57;;;;;;;12.83;3.23;;;10.60;99.90;;;;;;5011010;28;20268;-32
2022/11/23 09:49:34;;;;;;;8.57;2.20;;;10.70;99.90;;;;;;5017789;28;20239;-32
2022/11/23 09:52:02;;;;;;;15.67;2.87;;;10.70;99.90;;;;;;5021987;28;20292;-32
2022/11/23 09:54:38;;;;;;;9.20;2.30;;;10.70;99.90;;;;;;5025150;28;20251;-32
2022/11/23 09:57:09;;;;;;;9.77;2.57;;;10.80;99.90;;;;;;5001220;28;20325;-32
2022/11/23 09:59:46;;;;;;;12.13;2.30;;;10.80;99.90;;;;;;5008711;28;20775;-31
2022/11/23 10:02:24;;;;;;;8.33;2.10;;;10.80;99.90;;;;;;5002193;28;21019;-32
2022/11/23 10:04:56;;;;;;;8.00;3.07;;;10.90;99.90;;;;;;5006822;28;20203;-32
2022/11/23 10:07:49;;;;;;;11.37;2.40;;;10.90;99.90;;;;;;5023486;28;20644;-32
2022/11/23 10:10:35;;;;;;;5.73;1.90;;;10.90;99.90;;;;;;5010419;28;20197;-32
2022/11/23 10:13:24;;;;;;;6.07;2.07;;;11.00;99.90;;;;;;5023289;28;20211;-32
2022/11/23 10:16:06;;;;;;;4.33;1.70;;;10.90;99.90;;;;;;5026903;28;20609;-32
2022/11/23 10:18:45;;;;;;;6.27;2.10;;;10.90;99.90;;;;;;5022467;28;20757;-32
2022/11/23 10:21:40;;;;;;;5.87;2.00;;;11.00;99.90;;;;;;5003191;28;20325;-32
2022/11/23 10:24:07;;;;;;;9.40;2.43;;;11.00;99.90;;;;;;5017054;28;20683;-32
2022/11/23 10:26:38;;;;;;;4.87;1.97;;;11.00;99.90;;;;;;5011830;28;20221;-32
2022/11/23 10:29:24;;;;;;;4.00;1.70;;;11.00;99.90;;;;;;4990309;28;20206;-32
2022/11/23 10:31:54;;;;;;;5.83;1.70;;;11.10;99.90;;;;;;5010472;28;20209;-32
2022/11/23 10:34:47;;;;;;;5.63;1.67;;;11.10;99.90;;;;;;5019671;28;20222;-31
2022/11/23 10:37:17;;;;;;;6.67;2.33;;;11.10;99.90;;;;;;5011296;28;20232;-31
2022/11/23 10:39:46;;;;;;;9.57;2.63;;;11.10;99.90;;;;;;5014792;28;20244;-31
2022/11/23 10:42:23;;;;;;;9.23;2.37;;;11.10;99.90;;;;;;5015820;28;20333;-31
2022/11/23 10:44:55;;;;;;;7.63;1.93;;;11.10;99.90;;;;;;5024998;28;20699;-31
2022/11/23 10:47:53;;;;;;;5.63;1.80;;;11.10;99.90;;;;;;4998860;28;20296;-31
2022/11/23 10:50:31;;;;;;;7.67;2.10;;;11.10;99.90;;;;;;5010657;28;20541;-31
2022/11/23 10:53:22;;;;;;;8.43;2.27;;;11.10;99.90;;;;;;5012069;28;20207;-31
2022/11/23 10:55:54;;;;;;;6.77;1.90;;;11.20;99.90;;;;;;5014556;28;20851;-31
2022/11/23 10:58:28;;;;;;;5.63;1.80;;;11.20;99.90;;;;;;4995529;28;20315;-31
2022/11/23 11:01:02;;;;;;;4.37;1.70;;;11.20;99.90;;;;;;5019305;28;20228;-32
2022/11/23 11:03:34;;;;;;;6.80;1.87;;;11.20;99.90;;;;;;5008077;28;20276;-32
2022/11/23 11:06:03;;;;;;;6.43;2.20;;;11.20;99.90;;;;;;5004490;28;20202;-32
2022/11/23 11:09:16;;;;;;;7.10;2.23;;;11.30;99.90;;;;;;5008608;28;20204;-32
2022/11/23 11:11:51;;;;;;;5.53;2.10;;;11.30;99.90;;;;;;4999324;28;20241;-31
2022/11/23 11:14:22;;;;;;;7.47;1.60;;;11.40;99.90;;;;;;5016907;28;20208;-32
2022/11/23 11:16:55;;;;;;;7.37;1.70;;;11.40;99.90;;;;;;5018523;28;20608;-32
2022/11/23 11:19:30;;;;;;;6.60;2.13;;;11.40;99.90;;;;;;5002145;28;20212;-32
2022/11/23 11:22:00;;;;;;;5.27;1.30;;;11.40;99.90;;;;;;5009632;28;20753;-32
2022/11/23 11:24:32;;;;;;;6.40;1.80;;;11.50;99.90;;;;;;5021719;28;20240;-32
2022/11/23 11:27:03;;;;;;;6.00;1.60;;;11.50;99.90;;;;;;5005397;28;20206;-32
2022/11/23 11:29:32;;;;;;;9.10;1.70;;;11.60;99.90;;;;;;5002329;28;20295;-32
2022/11/23 11:32:17;;;;;;;5.77;1.60;;;11.60;99.90;;;;;;5009312;28;20286;-32
2022/11/23 11:35:11;;;;;;;5.97;1.70;;;11.60;99.90;;;;;;5000023;28;20597;-32
2022/11/23 11:37:51;;;;;;;6.83;1.87;;;11.70;99.90;;;;;;5002267;28;20232;-32
2022/11/23 11:40:30;;;;;;;5.93;1.60;;;11.70;99.90;;;;;;5002002;28;20588;-32
2022/11/23 11:43:16;;;;;;;6.70;1.47;;;11.70;99.90;;;;;;5009532;28;20320;-32
2022/11/23 11:45:45;;;;;;;5.77;1.80;;;11.80;99.90;;;;;;5009140;28;20230;-32
2022/11/23 11:48:40;;;;;;;4.27;1.60;;;11.90;99.90;;;;;;4998094;28;20233;-32
2022/11/23 11:51:26;;;;;;;5.60;1.70;;;11.90;99.90;;;;;;5008399;28;20266;-32
2022/11/23 11:54:12;;;;;;;4.60;1.33;;;12.00;99.90;;;;;;5015066;28;20200;-33
2022/11/23 11:57:05;;;;;;;4.93;1.30;;;12.00;99.90;;;;;;5006403;28;20322;-33
2022/11/23 11:59:46;;;;;;;5.67;1.37;;;12.00;99.90;;;;;;5000904;28;20238;-34
2022/11/23 12:02:39;;;;;;;5.13;1.80;;;12.00;99.90;;;;;;5002772;28;20220;-34
2022/11/23 12:05:38;;;;;;;4.90;1.87;;;12.10;99.90;;;;;;4997165;28;20250;-33
2022/11/23 12:08:28;;;;;;;7.13;1.60;;;12.10;99.90;;;;;;5004654;28;20200;-34
2022/11/23 12:11:04;;;;;;;5.93;1.37;;;12.20;99.90;;;;;;4986515;28;20260;-34
2022/11/23 12:13:36;;;;;;;6.13;1.50;;;12.20;99.90;;;;;;4998272;28;20213;-34
2022/11/23 12:16:30;;;;;;;5.30;1.30;;;12.20;99.90;;;;;;5006292;28;20626;-34
2022/11/23 12:19:29;;;;;;;4.67;1.50;;;12.20;99.90;;;;;;5014542;28;20660;-34
2022/11/23 12:22:18;;;;;;;3.67;1.20;;;12.30;99.90;;;;;;4989702;28;20250;-34
2022/11/23 12:25:04;;;;;;;6.60;1.53;;;12.30;99.90;;;;;;5019783;28;20616;-34
2022/11/23 12:28:01;;;;;;;3.50;1.20;;;12.30;99.90;;;;;;5001182;28;20225;-33
2022/11/23 12:30:40;;;;;;;3.80;1.10;;;12.30;99.90;;;;;;5027216;28;20303;-34
2022/11/23 12:33:38;;;;;;;3.03;1.17;;;12.30;99.90;;;;;;5019685;28;20630;-34
2022/11/23 12:36:27;;;;;;;4.97;1.20;;;12.30;99.90;;;;;;5009926;28;20304;-35
2022/11/23 12:39:03;;;;;;;4.90;1.33;;;12.30;99.90;;;;;;5018186;28;20227;-34
2022/11/23 12:41:46;;;;;;;4.27;1.33;;;12.30;99.90;;;;;;5018670;28;20238;-34
2022/11/23 12:44:35;;;;;;;2.93;1.03;;;12.30;99.90;;;;;;5003247;28;20206;-33
2022/11/23 12:47:22;;;;;;;5.50;1.50;;;12.30;99.90;;;;;;5022756;28;20691;-34
2022/11/23 12:50:10;;;;;;;5.17;1.90;;;12.40;99.90;;;;;;5006469;28;20214;-34
2022/11/23 12:52:49;;;;;;;3.63;1.20;;;12.40;99.90;;;;;;5012000;28;20222;-35
2022/11/23 12:55:24;;;;;;;5.67;1.73;;;12.40;99.90;;;;;;5001028;28;20791;-35
2022/11/23 12:58:03;;;;;;;5.97;1.40;;;12.40;99.90;;;;;;5018883;28;20312;-34
2022/11/23 13:00:47;;;;;;;3.33;0.97;;;12.40;99.90;;;;;;5007169;28;20236;-33
2022/11/23 13:03:44;;;;;;;3.33;1.60;;;12.40;99.90;;;;;;5025008;28;20235;-34
2022/11/23 13:06:41;;;;;;;3.53;1.30;;;12.40;99.90;;;;;;5003398;28;20252;-34
2022/11/23 13:09:31;;;;;;;3.70;1.40;;;12.40;99.90;;;;;;4993989;28;20263;-34
2022/11/23 13:12:31;;;;;;;6.47;1.60;;;12.40;99.90;;;;;;4994350;28;20230;-34